GLO2141 SBFI-SBFZ
Flight info
| Callsign | GLO2141 |
|---|---|
| Flight time | 3h 55m |
| Altitude | 37000 |
| Route | UPORU DCT UMPED UM532 KUKOL DCT EPDEP UZ60 DOTKU |
| Aircraft | B738/M-SDFGIKLORWXY/LB1 |
Departure
| Time | 2026-04-26 16:28 |
|---|---|
| Airport | Cataratas International Airport (SBFI) |
Arrival
| Time | 2026-04-26 20:23 |
|---|---|
| Airport | Pinto Martins International Airport (SBFZ) |
| Time | Latitude | Longitude | Altitude | Speed | Heading |
|---|---|---|---|---|---|
| 2026-04-26 15:55 | -25.59756 | -54.48770 | 797 ft | 0 kts | 220° |
| 2026-04-26 16:18 | -25.59756 | -54.48769 | 797 ft | 1 kts | 219° |
| 2026-04-26 16:18 | -25.59731 | -54.48736 | 797 ft | 4 kts | 259° |
| 2026-04-26 16:19 | -25.59741 | -54.48701 | 797 ft | 1 kts | 311° |
| 2026-04-26 16:21 | -25.59738 | -54.48705 | 797 ft | 1 kts | 311° |
| 2026-04-26 16:21 | -25.59729 | -54.48716 | 797 ft | 2 kts | 311° |
| 2026-04-26 16:21 | -25.59717 | -54.48731 | 797 ft | 3 kts | 311° |
| 2026-04-26 16:21 | -25.59703 | -54.48750 | 797 ft | 3 kts | 311° |
| 2026-04-26 16:22 | -25.59686 | -54.48771 | 797 ft | 4 kts | 311° |
| 2026-04-26 16:22 | -25.59667 | -54.48796 | 797 ft | 5 kts | 311° |
| 2026-04-26 16:22 | -25.59637 | -54.48834 | 797 ft | 8 kts | 311° |
| 2026-04-26 16:22 | -25.59596 | -54.48887 | 798 ft | 10 kts | 311° |
| 2026-04-26 16:23 | -25.59544 | -54.48948 | 798 ft | 11 kts | 304° |
| 2026-04-26 16:23 | -25.59490 | -54.49021 | 798 ft | 13 kts | 312° |
| 2026-04-26 16:23 | -25.59409 | -54.49031 | 799 ft | 13 kts | 33° |
| 2026-04-26 16:23 | -25.59330 | -54.49035 | 798 ft | 12 kts | 313° |
| 2026-04-26 16:24 | -25.59280 | -54.49105 | 799 ft | 11 kts | 308° |
| 2026-04-26 16:24 | -25.59232 | -54.49174 | 798 ft | 12 kts | 307° |
| 2026-04-26 16:24 | -25.59176 | -54.49252 | 796 ft | 14 kts | 310° |
| 2026-04-26 16:24 | -25.59107 | -54.49339 | 795 ft | 15 kts | 311° |
| 2026-04-26 16:25 | -25.59038 | -54.49427 | 796 ft | 15 kts | 310° |
| 2026-04-26 16:25 | -25.58971 | -54.49514 | 795 ft | 16 kts | 310° |
| 2026-04-26 16:25 | -25.58901 | -54.49606 | 796 ft | 15 kts | 310° |
| 2026-04-26 16:25 | -25.58832 | -54.49692 | 799 ft | 15 kts | 311° |
| 2026-04-26 16:26 | -25.58766 | -54.49776 | 799 ft | 15 kts | 311° |
| 2026-04-26 16:26 | -25.58695 | -54.49860 | 800 ft | 15 kts | 327° |
| 2026-04-26 16:26 | -25.58600 | -54.49900 | 800 ft | 13 kts | 326° |
| 2026-04-26 16:26 | -25.58595 | -54.49950 | 801 ft | 6 kts | 227° |
| 2026-04-26 16:27 | -25.58635 | -54.49945 | 801 ft | 4 kts | 136° |
| 2026-04-26 16:27 | -25.58635 | -54.49944 | 801 ft | 0 kts | 135° |
| 2026-04-26 16:27 | -25.58663 | -54.49912 | 801 ft | 28 kts | 133° |
| 2026-04-26 16:27 | -25.58948 | -54.49544 | 795 ft | 98 kts | 131° |
| 2026-04-26 16:28 | -25.59528 | -54.48803 | 798 ft | 155 kts | 132° |
| 2026-04-26 16:28 | -25.60346 | -54.47823 | 1112 ft | 176 kts | 136° |
| 2026-04-26 16:28 | -25.61146 | -54.46797 | 1894 ft | 182 kts | 132° |
| 2026-04-26 16:28 | -25.61958 | -54.45733 | 2616 ft | 183 kts | 132° |
| 2026-04-26 16:29 | -25.62842 | -54.44579 | 2918 ft | 212 kts | 132° |
| 2026-04-26 16:29 | -25.63844 | -54.43278 | 3296 ft | 226 kts | 132° |
| 2026-04-26 16:29 | -25.64878 | -54.41936 | 3848 ft | 231 kts | 132° |
| 2026-04-26 16:29 | -25.65912 | -54.40550 | 4431 ft | 239 kts | 125° |
| 2026-04-26 16:30 | -25.66457 | -54.38730 | 4677 ft | 260 kts | 88° |
| 2026-04-26 16:30 | -25.65996 | -54.36801 | 5088 ft | 275 kts | 56° |
| 2026-04-26 16:30 | -25.64745 | -54.35127 | 5536 ft | 288 kts | 42° |
| 2026-04-26 16:30 | -25.63348 | -54.33585 | 6516 ft | 288 kts | 41° |
| 2026-04-26 16:31 | -25.61876 | -54.31998 | 7277 ft | 294 kts | 41° |
| 2026-04-26 16:31 | -25.60390 | -54.30392 | 7959 ft | 300 kts | 40° |
| 2026-04-26 16:31 | -25.58896 | -54.28762 | 8777 ft | 303 kts | 40° |
| 2026-04-26 16:31 | -25.57392 | -54.27109 | 9557 ft | 307 kts | 40° |
| 2026-04-26 16:32 | -25.55868 | -54.25426 | 10281 ft | 313 kts | 40° |
| 2026-04-26 16:32 | -25.54825 | -54.24272 | 10497 ft | 329 kts | 40° |
| 2026-04-26 16:32 | -25.52544 | -54.21749 | 10791 ft | 362 kts | 41° |
| 2026-04-26 16:32 | -25.50730 | -54.19731 | 11254 ft | 374 kts | 41° |
| 2026-04-26 16:33 | -25.48893 | -54.17680 | 12008 ft | 376 kts | 41° |
| 2026-04-26 16:33 | -25.47040 | -54.15609 | 12720 ft | 381 kts | 41° |
| 2026-04-26 16:33 | -25.45157 | -54.13506 | 13315 ft | 387 kts | 41° |
| 2026-04-26 16:33 | -25.43257 | -54.11386 | 13948 ft | 390 kts | 41° |
| 2026-04-26 16:34 | -25.41335 | -54.09244 | 14612 ft | 393 kts | 41° |
| 2026-04-26 16:34 | -25.39405 | -54.07093 | 15293 ft | 395 kts | 41° |
| 2026-04-26 16:34 | -25.37475 | -54.04946 | 15738 ft | 402 kts | 41° |
| 2026-04-26 16:34 | -25.35471 | -54.02718 | 16242 ft | 405 kts | 41° |
| 2026-04-26 16:35 | -25.33503 | -54.00529 | 16783 ft | 407 kts | 41° |
| 2026-04-26 16:35 | -25.31473 | -53.98273 | 17306 ft | 411 kts | 41° |
| 2026-04-26 16:35 | -25.29470 | -53.96048 | 17780 ft | 414 kts | 41° |
| 2026-04-26 16:35 | -25.27433 | -53.93785 | 18254 ft | 418 kts | 41° |
| 2026-04-26 16:36 | -25.25372 | -53.91499 | 18652 ft | 421 kts | 41° |
| 2026-04-26 16:36 | -25.23298 | -53.89200 | 19036 ft | 425 kts | 41° |
| 2026-04-26 16:36 | -25.21109 | -53.87001 | 19420 ft | 425 kts | 33° |
| 2026-04-26 16:36 | -25.18726 | -53.85071 | 19813 ft | 426 kts | 30° |
| 2026-04-26 16:37 | -25.16268 | -53.83220 | 20196 ft | 428 kts | 29° |
| 2026-04-26 16:37 | -25.13782 | -53.81387 | 20560 ft | 432 kts | 28° |
| 2026-04-26 16:37 | -25.11267 | -53.79531 | 20939 ft | 435 kts | 29° |
| 2026-04-26 16:37 | -25.09605 | -53.78293 | 21190 ft | 437 kts | 29° |
| 2026-04-26 16:38 | -25.06227 | -53.75751 | 21749 ft | 441 kts | 29° |
| 2026-04-26 16:38 | -25.03696 | -53.73826 | 22161 ft | 445 kts | 29° |
| 2026-04-26 16:38 | -25.01135 | -53.71871 | 22554 ft | 449 kts | 30° |
| 2026-04-26 16:38 | -24.98563 | -53.69900 | 22918 ft | 452 kts | 30° |
| 2026-04-26 16:39 | -24.95971 | -53.67911 | 23260 ft | 455 kts | 30° |
| 2026-04-26 16:39 | -24.93363 | -53.65911 | 23576 ft | 457 kts | 30° |
| 2026-04-26 16:39 | -24.90749 | -53.63906 | 23869 ft | 459 kts | 30° |
| 2026-04-26 16:39 | -24.88119 | -53.61891 | 24160 ft | 461 kts | 29° |
| 2026-04-26 16:40 | -24.85485 | -53.59874 | 24458 ft | 462 kts | 29° |
| 2026-04-26 16:40 | -24.82846 | -53.57856 | 24747 ft | 463 kts | 29° |
| 2026-04-26 16:40 | -24.80193 | -53.55827 | 25034 ft | 465 kts | 29° |
| 2026-04-26 16:40 | -24.77537 | -53.53798 | 25313 ft | 466 kts | 29° |
| 2026-04-26 16:41 | -24.74865 | -53.51759 | 25589 ft | 468 kts | 29° |
| 2026-04-26 16:41 | -24.72184 | -53.49713 | 25849 ft | 469 kts | 29° |
| 2026-04-26 16:41 | -24.69536 | -53.47694 | 26112 ft | 471 kts | 29° |
| 2026-04-26 16:41 | -24.66837 | -53.45637 | 26374 ft | 472 kts | 29° |
| 2026-04-26 16:42 | -24.64130 | -53.43575 | 26644 ft | 474 kts | 29° |
| 2026-04-26 16:42 | -24.61414 | -53.41507 | 26900 ft | 475 kts | 29° |
| 2026-04-26 16:42 | -24.58695 | -53.39439 | 27163 ft | 477 kts | 29° |
| 2026-04-26 16:42 | -24.55968 | -53.37364 | 27417 ft | 478 kts | 29° |
| 2026-04-26 16:43 | -24.53226 | -53.35279 | 27660 ft | 480 kts | 29° |
| 2026-04-26 16:43 | -24.50474 | -53.33189 | 27910 ft | 481 kts | 29° |
| 2026-04-26 16:43 | -24.47713 | -53.31093 | 28162 ft | 483 kts | 28° |
| 2026-04-26 16:43 | -24.44950 | -53.28996 | 28391 ft | 484 kts | 28° |
| 2026-04-26 16:44 | -24.42178 | -53.26893 | 28628 ft | 486 kts | 28° |
| 2026-04-26 16:44 | -24.39391 | -53.24780 | 28866 ft | 487 kts | 28° |
| 2026-04-26 16:44 | -24.36601 | -53.22667 | 29087 ft | 488 kts | 28° |
| 2026-04-26 16:44 | -24.33799 | -53.20544 | 29324 ft | 490 kts | 28° |
| 2026-04-26 16:45 | -24.30994 | -53.18422 | 29525 ft | 491 kts | 28° |
| 2026-04-26 16:45 | -24.28175 | -53.16289 | 29733 ft | 492 kts | 28° |
| 2026-04-26 16:45 | -24.25359 | -53.14160 | 30036 ft | 492 kts | 28° |
| 2026-04-26 16:45 | -24.22547 | -53.12032 | 30393 ft | 489 kts | 28° |
| 2026-04-26 16:46 | -24.19784 | -53.09944 | 30678 ft | 488 kts | 28° |
| 2026-04-26 16:46 | -24.16983 | -53.07829 | 30890 ft | 489 kts | 28° |
| 2026-04-26 16:46 | -24.14184 | -53.05718 | 31120 ft | 489 kts | 28° |
| 2026-04-26 16:46 | -24.11380 | -53.03604 | 31409 ft | 488 kts | 28° |
| 2026-04-26 16:47 | -24.08584 | -53.01497 | 31690 ft | 487 kts | 28° |
| 2026-04-26 16:47 | -24.05791 | -52.99393 | 31941 ft | 487 kts | 28° |
| 2026-04-26 16:47 | -24.03002 | -52.97295 | 32182 ft | 487 kts | 29° |
| 2026-04-26 16:47 | -24.00216 | -52.95198 | 32466 ft | 486 kts | 29° |
| 2026-04-26 16:48 | -23.97427 | -52.93102 | 32755 ft | 485 kts | 29° |
| 2026-04-26 16:48 | -23.94644 | -52.91010 | 33045 ft | 485 kts | 29° |
| 2026-04-26 16:48 | -23.91869 | -52.88925 | 33287 ft | 485 kts | 29° |
| 2026-04-26 16:48 | -23.89088 | -52.86837 | 33525 ft | 484 kts | 29° |
| 2026-04-26 16:49 | -23.86308 | -52.84752 | 33791 ft | 484 kts | 29° |
| 2026-04-26 16:49 | -23.83535 | -52.82673 | 34018 ft | 484 kts | 29° |
| 2026-04-26 16:49 | -23.80759 | -52.80592 | 34254 ft | 483 kts | 29° |
| 2026-04-26 16:49 | -23.77991 | -52.78517 | 34512 ft | 481 kts | 29° |
| 2026-04-26 16:50 | -23.75228 | -52.76448 | 34727 ft | 481 kts | 29° |
| 2026-04-26 16:50 | -23.72472 | -52.74386 | 34908 ft | 481 kts | 29° |
| 2026-04-26 16:50 | -23.69740 | -52.72343 | 35116 ft | 480 kts | 29° |
| 2026-04-26 16:50 | -23.66983 | -52.70282 | 35351 ft | 479 kts | 29° |
| 2026-04-26 16:51 | -23.64240 | -52.68232 | 35577 ft | 478 kts | 29° |
| 2026-04-26 16:51 | -23.61494 | -52.66181 | 35775 ft | 478 kts | 29° |
| 2026-04-26 16:51 | -23.58757 | -52.64138 | 35978 ft | 477 kts | 29° |
| 2026-04-26 16:51 | -23.56018 | -52.62095 | 36202 ft | 476 kts | 29° |
| 2026-04-26 16:52 | -23.53288 | -52.60059 | 36426 ft | 474 kts | 29° |
| 2026-04-26 16:52 | -23.51480 | -52.58711 | 36547 ft | 474 kts | 29° |
| 2026-04-26 16:52 | -23.47836 | -52.55997 | 36765 ft | 474 kts | 29° |
| 2026-04-26 16:52 | -23.45114 | -52.53971 | 36896 ft | 475 kts | 29° |
| 2026-04-26 16:53 | -23.39644 | -52.49903 | 36911 ft | 475 kts | 29° |
| 2026-04-26 16:53 | -23.34218 | -52.45870 | 36901 ft | 473 kts | 29° |
| 2026-04-26 16:54 | -23.28788 | -52.41837 | 36907 ft | 471 kts | 29° |
| 2026-04-26 16:54 | -23.23388 | -52.37831 | 36915 ft | 469 kts | 29° |
| 2026-04-26 16:55 | -23.17998 | -52.33839 | 36914 ft | 468 kts | 29° |
| 2026-04-26 16:55 | -23.12611 | -52.29852 | 36911 ft | 469 kts | 29° |
| 2026-04-26 16:56 | -23.04513 | -52.23865 | 36919 ft | 470 kts | 30° |
| 2026-04-26 16:57 | -22.99091 | -52.19862 | 36906 ft | 472 kts | 30° |
| 2026-04-26 16:57 | -22.90930 | -52.13844 | 36903 ft | 474 kts | 30° |
| 2026-04-26 16:58 | -22.87313 | -52.11179 | 36902 ft | 475 kts | 30° |
| 2026-04-26 16:59 | -22.77273 | -52.03792 | 36911 ft | 477 kts | 30° |
| 2026-04-26 17:00 | -22.66274 | -51.95714 | 36899 ft | 478 kts | 30° |
| 2026-04-26 17:00 | -22.58020 | -51.89662 | 36901 ft | 476 kts | 30° |
| 2026-04-26 17:01 | -22.52535 | -51.85645 | 36890 ft | 476 kts | 30° |
| 2026-04-26 17:01 | -22.47059 | -51.81639 | 36890 ft | 475 kts | 30° |
| 2026-04-26 17:02 | -22.41624 | -51.77667 | 36907 ft | 474 kts | 30° |
| 2026-04-26 17:02 | -22.36158 | -51.73677 | 36909 ft | 473 kts | 30° |
| 2026-04-26 17:03 | -22.30710 | -51.69703 | 36908 ft | 472 kts | 30° |
| 2026-04-26 17:03 | -22.25270 | -51.65739 | 36926 ft | 471 kts | 30° |
| 2026-04-26 17:04 | -22.20747 | -51.62446 | 36934 ft | 471 kts | 30° |
| 2026-04-26 17:04 | -22.15318 | -51.58497 | 36953 ft | 470 kts | 30° |
| 2026-04-26 17:05 | -22.09886 | -51.54549 | 36948 ft | 472 kts | 30° |
| 2026-04-26 17:05 | -22.04417 | -51.50580 | 36957 ft | 475 kts | 30° |
| 2026-04-26 17:06 | -21.98910 | -51.46586 | 36947 ft | 478 kts | 30° |
| 2026-04-26 17:06 | -21.93382 | -51.42580 | 36923 ft | 480 kts | 31° |
| 2026-04-26 17:07 | -21.87882 | -51.38597 | 36903 ft | 479 kts | 31° |
| 2026-04-26 17:07 | -21.82355 | -51.34597 | 36892 ft | 478 kts | 31° |
| 2026-04-26 17:08 | -21.76841 | -51.30613 | 36896 ft | 476 kts | 31° |
| 2026-04-26 17:08 | -21.71358 | -51.26654 | 36894 ft | 473 kts | 31° |
| 2026-04-26 17:09 | -21.66820 | -51.23380 | 36896 ft | 471 kts | 31° |
| 2026-04-26 17:09 | -21.60469 | -51.18803 | 36888 ft | 469 kts | 31° |
| 2026-04-26 17:10 | -21.55059 | -51.14908 | 36898 ft | 467 kts | 31° |
| 2026-04-26 17:10 | -21.49659 | -51.11024 | 36896 ft | 466 kts | 31° |
| 2026-04-26 17:11 | -21.44307 | -51.07178 | 36910 ft | 465 kts | 31° |
| 2026-04-26 17:11 | -21.38926 | -51.03315 | 36899 ft | 466 kts | 31° |
| 2026-04-26 17:12 | -21.30829 | -50.97508 | 36912 ft | 467 kts | 31° |
| 2026-04-26 17:13 | -21.22708 | -50.91690 | 36914 ft | 469 kts | 31° |
| 2026-04-26 17:14 | -21.14567 | -50.85865 | 36912 ft | 470 kts | 31° |
| 2026-04-26 17:14 | -21.06130 | -50.80567 | 36918 ft | 467 kts | 24° |
| 2026-04-26 17:15 | -20.97486 | -50.75804 | 36912 ft | 468 kts | 25° |
| 2026-04-26 17:16 | -20.91727 | -50.72560 | 36914 ft | 468 kts | 25° |
| 2026-04-26 17:16 | -20.85982 | -50.69303 | 36910 ft | 467 kts | 25° |
| 2026-04-26 17:17 | -20.80236 | -50.66052 | 36910 ft | 466 kts | 25° |
| 2026-04-26 17:17 | -20.74494 | -50.62840 | 36913 ft | 465 kts | 24° |
| 2026-04-26 17:18 | -20.68778 | -50.59717 | 36914 ft | 463 kts | 24° |
| 2026-04-26 17:18 | -20.63038 | -50.56587 | 36914 ft | 462 kts | 24° |
| 2026-04-26 17:19 | -20.54459 | -50.51896 | 36912 ft | 461 kts | 24° |
| 2026-04-26 17:19 | -20.48744 | -50.48770 | 36919 ft | 461 kts | 24° |
| 2026-04-26 17:20 | -20.44003 | -50.46179 | 36914 ft | 460 kts | 24° |
| 2026-04-26 17:20 | -20.37340 | -50.42541 | 36917 ft | 460 kts | 24° |
| 2026-04-26 17:21 | -20.31643 | -50.39434 | 36919 ft | 460 kts | 24° |
| 2026-04-26 17:21 | -20.25945 | -50.36327 | 36920 ft | 460 kts | 25° |
| 2026-04-26 17:22 | -20.20242 | -50.33221 | 36921 ft | 460 kts | 25° |
| 2026-04-26 17:22 | -20.14543 | -50.30119 | 36922 ft | 460 kts | 25° |
| 2026-04-26 17:23 | -20.08843 | -50.27016 | 36921 ft | 460 kts | 25° |
| 2026-04-26 17:23 | -20.03152 | -50.23899 | 36922 ft | 460 kts | 25° |
| 2026-04-26 17:24 | -19.97460 | -50.20792 | 36920 ft | 460 kts | 25° |
| 2026-04-26 17:24 | -19.91758 | -50.17720 | 36918 ft | 459 kts | 25° |
| 2026-04-26 17:25 | -19.86090 | -50.14675 | 36919 ft | 459 kts | 25° |
| 2026-04-26 17:25 | -19.80401 | -50.11617 | 36924 ft | 458 kts | 25° |
| 2026-04-26 17:26 | -19.74715 | -50.08560 | 36919 ft | 457 kts | 25° |
| 2026-04-26 17:26 | -19.69033 | -50.05507 | 36914 ft | 457 kts | 25° |
| 2026-04-26 17:27 | -19.63413 | -50.02486 | 36911 ft | 446 kts | 24° |
| 2026-04-26 17:27 | -19.57928 | -49.99543 | 36917 ft | 440 kts | 24° |
| 2026-04-26 17:28 | -19.52476 | -49.96623 | 36918 ft | 438 kts | 24° |
| 2026-04-26 17:28 | -19.47076 | -49.93731 | 36928 ft | 438 kts | 24° |
| 2026-04-26 17:29 | -19.42519 | -49.91291 | 36929 ft | 438 kts | 24° |
| 2026-04-26 17:29 | -19.36171 | -49.87895 | 36933 ft | 441 kts | 24° |
| 2026-04-26 17:30 | -19.30697 | -49.84931 | 36939 ft | 443 kts | 25° |
| 2026-04-26 17:30 | -19.25219 | -49.81895 | 36932 ft | 445 kts | 25° |
| 2026-04-26 17:31 | -19.19718 | -49.78845 | 36931 ft | 447 kts | 25° |
| 2026-04-26 17:31 | -19.14193 | -49.75794 | 36942 ft | 448 kts | 25° |
| 2026-04-26 17:32 | -19.08653 | -49.72741 | 36930 ft | 449 kts | 25° |
| 2026-04-26 17:32 | -19.03113 | -49.69690 | 36934 ft | 449 kts | 25° |
| 2026-04-26 17:33 | -18.97583 | -49.66646 | 36929 ft | 448 kts | 25° |
| 2026-04-26 17:34 | -18.89350 | -49.62119 | 36929 ft | 445 kts | 25° |
| 2026-04-26 17:34 | -18.83863 | -49.59105 | 36925 ft | 444 kts | 25° |
| 2026-04-26 17:35 | -18.78394 | -49.56115 | 36927 ft | 442 kts | 24° |
| 2026-04-26 17:35 | -18.72931 | -49.53149 | 36936 ft | 440 kts | 24° |
| 2026-04-26 17:36 | -18.67491 | -49.50198 | 36930 ft | 439 kts | 24° |
| 2026-04-26 17:36 | -18.62056 | -49.47248 | 36931 ft | 439 kts | 25° |
| 2026-04-26 17:37 | -18.56628 | -49.44303 | 36932 ft | 439 kts | 25° |
| 2026-04-26 17:37 | -18.51185 | -49.41351 | 36937 ft | 439 kts | 25° |
| 2026-04-26 17:38 | -18.43050 | -49.36945 | 36939 ft | 440 kts | 25° |
| 2026-04-26 17:38 | -18.37587 | -49.33988 | 36935 ft | 441 kts | 25° |
| 2026-04-26 17:39 | -18.32121 | -49.31031 | 36932 ft | 442 kts | 25° |
| 2026-04-26 17:39 | -18.26645 | -49.28071 | 36935 ft | 443 kts | 25° |
| 2026-04-26 17:40 | -18.22976 | -49.26089 | 36940 ft | 443 kts | 25° |
| 2026-04-26 17:40 | -18.15661 | -49.22139 | 36941 ft | 444 kts | 25° |
| 2026-04-26 17:41 | -18.10160 | -49.19173 | 36938 ft | 444 kts | 25° |
| 2026-04-26 17:41 | -18.04641 | -49.16224 | 36940 ft | 445 kts | 25° |
| 2026-04-26 17:42 | -17.99116 | -49.13286 | 36943 ft | 444 kts | 25° |
| 2026-04-26 17:42 | -17.93600 | -49.10351 | 36943 ft | 444 kts | 25° |
| 2026-04-26 17:43 | -17.88090 | -49.07418 | 36939 ft | 444 kts | 25° |
| 2026-04-26 17:43 | -17.82618 | -49.04507 | 36942 ft | 443 kts | 25° |
| 2026-04-26 17:44 | -17.77123 | -49.01585 | 36941 ft | 442 kts | 25° |
| 2026-04-26 17:44 | -17.71632 | -48.98664 | 36941 ft | 442 kts | 25° |
| 2026-04-26 17:45 | -17.66170 | -48.95716 | 36944 ft | 441 kts | 25° |
| 2026-04-26 17:45 | -17.60712 | -48.92760 | 36944 ft | 441 kts | 26° |
| 2026-04-26 17:46 | -17.55252 | -48.89810 | 36945 ft | 441 kts | 26° |
| 2026-04-26 17:46 | -17.49790 | -48.86863 | 36943 ft | 442 kts | 26° |
| 2026-04-26 17:47 | -17.46170 | -48.84911 | 36942 ft | 442 kts | 26° |
| 2026-04-26 17:47 | -17.38889 | -48.80989 | 36941 ft | 442 kts | 26° |
| 2026-04-26 17:48 | -17.33418 | -48.78043 | 36946 ft | 442 kts | 26° |
| 2026-04-26 17:48 | -17.27928 | -48.75089 | 36940 ft | 443 kts | 26° |
| 2026-04-26 17:49 | -17.22444 | -48.72141 | 36940 ft | 443 kts | 26° |
| 2026-04-26 17:49 | -17.16925 | -48.69261 | 36946 ft | 444 kts | 25° |
| 2026-04-26 17:50 | -17.11372 | -48.66439 | 36945 ft | 444 kts | 25° |
| 2026-04-26 17:50 | -17.05851 | -48.63627 | 36950 ft | 444 kts | 25° |
| 2026-04-26 17:51 | -17.00303 | -48.60791 | 36948 ft | 444 kts | 25° |
| 2026-04-26 17:51 | -16.95687 | -48.58429 | 36951 ft | 444 kts | 25° |
| 2026-04-26 17:52 | -16.90131 | -48.55588 | 36948 ft | 444 kts | 25° |
| 2026-04-26 17:52 | -16.84595 | -48.52760 | 36956 ft | 443 kts | 25° |
| 2026-04-26 17:53 | -16.79050 | -48.49929 | 36949 ft | 443 kts | 25° |
| 2026-04-26 17:54 | -16.70774 | -48.45706 | 36961 ft | 443 kts | 25° |
| 2026-04-26 17:54 | -16.65546 | -48.42309 | 36969 ft | 443 kts | 35° |
| 2026-04-26 17:55 | -16.60591 | -48.38473 | 36954 ft | 444 kts | 36° |
| 2026-04-26 17:55 | -16.55641 | -48.34634 | 36951 ft | 444 kts | 36° |
| 2026-04-26 17:56 | -16.50666 | -48.30815 | 36954 ft | 444 kts | 35° |
| 2026-04-26 17:57 | -16.40696 | -48.23217 | 36954 ft | 444 kts | 35° |
| 2026-04-26 17:57 | -16.35709 | -48.19423 | 36953 ft | 444 kts | 35° |
| 2026-04-26 17:58 | -16.25720 | -48.11828 | 36953 ft | 444 kts | 35° |
| 2026-04-26 17:59 | -16.18255 | -48.06159 | 36958 ft | 444 kts | 35° |
| 2026-04-26 17:59 | -16.13261 | -48.02369 | 36956 ft | 444 kts | 35° |
| 2026-04-26 18:00 | -16.08261 | -47.98577 | 36956 ft | 444 kts | 36° |
| 2026-04-26 18:00 | -16.03270 | -47.94794 | 36958 ft | 444 kts | 36° |
| 2026-04-26 18:01 | -15.98275 | -47.91010 | 36953 ft | 444 kts | 36° |
| 2026-04-26 18:01 | -15.93282 | -47.87231 | 36953 ft | 444 kts | 36° |
| 2026-04-26 18:02 | -15.89130 | -47.84089 | 36960 ft | 443 kts | 36° |
| 2026-04-26 18:02 | -15.83334 | -47.79707 | 36956 ft | 443 kts | 36° |
| 2026-04-26 18:03 | -15.78340 | -47.75934 | 36955 ft | 443 kts | 36° |
| 2026-04-26 18:03 | -15.73352 | -47.72168 | 36952 ft | 443 kts | 36° |
| 2026-04-26 18:04 | -15.68365 | -47.68404 | 36951 ft | 443 kts | 36° |
| 2026-04-26 18:05 | -15.61720 | -47.63393 | 36945 ft | 443 kts | 36° |
| 2026-04-26 18:05 | -15.55886 | -47.58998 | 36949 ft | 443 kts | 36° |
| 2026-04-26 18:06 | -15.50897 | -47.55241 | 36958 ft | 443 kts | 36° |
| 2026-04-26 18:06 | -15.45932 | -47.51505 | 36944 ft | 443 kts | 36° |
| 2026-04-26 18:07 | -15.40933 | -47.47745 | 36944 ft | 444 kts | 36° |
| 2026-04-26 18:07 | -15.35941 | -47.43992 | 36943 ft | 444 kts | 36° |
| 2026-04-26 18:08 | -15.30937 | -47.40234 | 36941 ft | 444 kts | 36° |
| 2026-04-26 18:08 | -15.25929 | -47.36474 | 36938 ft | 444 kts | 36° |
| 2026-04-26 18:09 | -15.20955 | -47.32742 | 36933 ft | 444 kts | 36° |
| 2026-04-26 18:09 | -15.15952 | -47.28991 | 36933 ft | 444 kts | 36° |
| 2026-04-26 18:10 | -15.10944 | -47.25238 | 36927 ft | 444 kts | 36° |
| 2026-04-26 18:10 | -15.05942 | -47.21492 | 36927 ft | 444 kts | 36° |
| 2026-04-26 18:11 | -15.00940 | -47.17747 | 36926 ft | 444 kts | 36° |
| 2026-04-26 18:11 | -14.95939 | -47.14006 | 36922 ft | 444 kts | 36° |
| 2026-04-26 18:12 | -14.90939 | -47.10267 | 36924 ft | 443 kts | 36° |
| 2026-04-26 18:12 | -14.85936 | -47.06529 | 36922 ft | 443 kts | 36° |
| 2026-04-26 18:13 | -14.80968 | -47.02817 | 36918 ft | 443 kts | 36° |
| 2026-04-26 18:13 | -14.75989 | -46.99057 | 36915 ft | 443 kts | 37° |
| 2026-04-26 18:14 | -14.71133 | -46.95146 | 36916 ft | 443 kts | 38° |
| 2026-04-26 18:14 | -14.66290 | -46.91218 | 36916 ft | 443 kts | 38° |
| 2026-04-26 18:15 | -14.61426 | -46.87309 | 36913 ft | 443 kts | 38° |
| 2026-04-26 18:15 | -14.56553 | -46.83407 | 36910 ft | 443 kts | 38° |
| 2026-04-26 18:16 | -14.51679 | -46.79505 | 36911 ft | 443 kts | 38° |
| 2026-04-26 18:16 | -14.44401 | -46.73673 | 36913 ft | 444 kts | 38° |
| 2026-04-26 18:17 | -14.39524 | -46.69765 | 36908 ft | 444 kts | 38° |
| 2026-04-26 18:17 | -14.34636 | -46.65851 | 36910 ft | 445 kts | 38° |
| 2026-04-26 18:18 | -14.29744 | -46.61935 | 36915 ft | 445 kts | 38° |
| 2026-04-26 18:18 | -14.24843 | -46.58014 | 36914 ft | 446 kts | 38° |
| 2026-04-26 18:19 | -14.19944 | -46.54100 | 36914 ft | 446 kts | 38° |
| 2026-04-26 18:19 | -14.15028 | -46.50186 | 36914 ft | 446 kts | 38° |
| 2026-04-26 18:20 | -14.10112 | -46.46276 | 36916 ft | 446 kts | 38° |
| 2026-04-26 18:20 | -14.06019 | -46.43020 | 36916 ft | 447 kts | 38° |
| 2026-04-26 18:21 | -14.00304 | -46.38476 | 36921 ft | 447 kts | 38° |
| 2026-04-26 18:21 | -13.95380 | -46.34562 | 36916 ft | 447 kts | 38° |
| 2026-04-26 18:22 | -13.90454 | -46.30649 | 36918 ft | 447 kts | 38° |
| 2026-04-26 18:22 | -13.85529 | -46.26739 | 36927 ft | 447 kts | 38° |
| 2026-04-26 18:23 | -13.80642 | -46.22861 | 36924 ft | 447 kts | 38° |
| 2026-04-26 18:23 | -13.75722 | -46.18960 | 36929 ft | 446 kts | 38° |
| 2026-04-26 18:24 | -13.70799 | -46.15057 | 36924 ft | 446 kts | 38° |
| 2026-04-26 18:24 | -13.65878 | -46.11159 | 36927 ft | 446 kts | 38° |
| 2026-04-26 18:25 | -13.60961 | -46.07266 | 36927 ft | 446 kts | 37° |
| 2026-04-26 18:25 | -13.56039 | -46.03371 | 36928 ft | 446 kts | 38° |
| 2026-04-26 18:26 | -13.51124 | -45.99483 | 36924 ft | 446 kts | 37° |
| 2026-04-26 18:26 | -13.46204 | -45.95594 | 36926 ft | 446 kts | 37° |
| 2026-04-26 18:27 | -13.41289 | -45.91711 | 36920 ft | 446 kts | 37° |
| 2026-04-26 18:27 | -13.36405 | -45.87854 | 36922 ft | 446 kts | 37° |
| 2026-04-26 18:28 | -13.31491 | -45.83975 | 36924 ft | 446 kts | 37° |
| 2026-04-26 18:28 | -13.26570 | -45.80092 | 36921 ft | 446 kts | 37° |
| 2026-04-26 18:29 | -13.21647 | -45.76209 | 36924 ft | 446 kts | 37° |
| 2026-04-26 18:29 | -13.16730 | -45.72335 | 36922 ft | 446 kts | 37° |
| 2026-04-26 18:30 | -13.11799 | -45.68450 | 36919 ft | 446 kts | 37° |
| 2026-04-26 18:30 | -13.06870 | -45.64568 | 36919 ft | 447 kts | 37° |
| 2026-04-26 18:31 | -13.01933 | -45.60679 | 36917 ft | 447 kts | 37° |
| 2026-04-26 18:31 | -12.97030 | -45.56819 | 36916 ft | 447 kts | 37° |
| 2026-04-26 18:32 | -12.92087 | -45.52927 | 36920 ft | 448 kts | 37° |
| 2026-04-26 18:32 | -12.87137 | -45.49032 | 36914 ft | 448 kts | 37° |
| 2026-04-26 18:33 | -12.82189 | -45.45141 | 36916 ft | 448 kts | 37° |
| 2026-04-26 18:33 | -12.77237 | -45.41248 | 36912 ft | 449 kts | 37° |
| 2026-04-26 18:34 | -12.72271 | -45.37347 | 36911 ft | 449 kts | 37° |
| 2026-04-26 18:34 | -12.67321 | -45.33459 | 36907 ft | 449 kts | 37° |
| 2026-04-26 18:35 | -12.62368 | -45.29571 | 36910 ft | 448 kts | 37° |
| 2026-04-26 18:35 | -12.57421 | -45.25689 | 36910 ft | 448 kts | 37° |
| 2026-04-26 18:36 | -12.52471 | -45.21812 | 36902 ft | 447 kts | 37° |
| 2026-04-26 18:36 | -12.47564 | -45.17972 | 36903 ft | 447 kts | 37° |
| 2026-04-26 18:37 | -12.42629 | -45.14110 | 36910 ft | 446 kts | 37° |
| 2026-04-26 18:37 | -12.37695 | -45.10250 | 36906 ft | 446 kts | 38° |
| 2026-04-26 18:38 | -12.32764 | -45.06394 | 36903 ft | 446 kts | 38° |
| 2026-04-26 18:38 | -12.28628 | -45.03161 | 36899 ft | 446 kts | 38° |
| 2026-04-26 18:39 | -12.23727 | -44.99332 | 36897 ft | 446 kts | 38° |
| 2026-04-26 18:39 | -12.18799 | -44.95483 | 36903 ft | 446 kts | 38° |
| 2026-04-26 18:40 | -12.13868 | -44.91634 | 36903 ft | 446 kts | 38° |
| 2026-04-26 18:40 | -12.08928 | -44.87780 | 36900 ft | 446 kts | 38° |
| 2026-04-26 18:41 | -12.03989 | -44.83929 | 36899 ft | 447 kts | 38° |
| 2026-04-26 18:41 | -11.99042 | -44.80073 | 36899 ft | 447 kts | 38° |
| 2026-04-26 18:42 | -11.94099 | -44.76221 | 36897 ft | 448 kts | 38° |
| 2026-04-26 18:42 | -11.89145 | -44.72364 | 36891 ft | 448 kts | 38° |
| 2026-04-26 18:43 | -11.84185 | -44.68504 | 36892 ft | 448 kts | 38° |
| 2026-04-26 18:43 | -11.79225 | -44.64645 | 36895 ft | 448 kts | 38° |
| 2026-04-26 18:44 | -11.74259 | -44.60783 | 36895 ft | 448 kts | 38° |
| 2026-04-26 18:44 | -11.69327 | -44.56949 | 36891 ft | 448 kts | 37° |
| 2026-04-26 18:45 | -11.64370 | -44.53099 | 36893 ft | 447 kts | 37° |
| 2026-04-26 18:45 | -11.59414 | -44.49250 | 36886 ft | 447 kts | 37° |
| 2026-04-26 18:46 | -11.54465 | -44.45409 | 36891 ft | 446 kts | 37° |
| 2026-04-26 18:46 | -11.49522 | -44.41573 | 36887 ft | 446 kts | 37° |
| 2026-04-26 18:47 | -11.44617 | -44.37770 | 36890 ft | 445 kts | 37° |
| 2026-04-26 18:47 | -11.39685 | -44.33946 | 36892 ft | 445 kts | 37° |
| 2026-04-26 18:48 | -11.34762 | -44.30132 | 36893 ft | 444 kts | 37° |
| 2026-04-26 18:48 | -11.29841 | -44.26320 | 36894 ft | 444 kts | 37° |
| 2026-04-26 18:49 | -11.24924 | -44.22513 | 36894 ft | 444 kts | 37° |
| 2026-04-26 18:49 | -11.20010 | -44.18709 | 36896 ft | 444 kts | 37° |
| 2026-04-26 18:50 | -11.15096 | -44.14909 | 36896 ft | 443 kts | 37° |
| 2026-04-26 18:50 | -11.10177 | -44.11117 | 36895 ft | 443 kts | 37° |
| 2026-04-26 18:51 | -11.05256 | -44.07333 | 36895 ft | 443 kts | 37° |
| 2026-04-26 18:51 | -11.00364 | -44.03571 | 36902 ft | 443 kts | 37° |
| 2026-04-26 18:52 | -10.95446 | -43.99788 | 36905 ft | 443 kts | 37° |
| 2026-04-26 18:52 | -10.90527 | -43.96006 | 36898 ft | 443 kts | 37° |
| 2026-04-26 18:53 | -10.85603 | -43.92222 | 36903 ft | 443 kts | 37° |
| 2026-04-26 18:53 | -10.80691 | -43.88448 | 36898 ft | 443 kts | 37° |
| 2026-04-26 18:54 | -10.75791 | -43.84684 | 36907 ft | 443 kts | 37° |
| 2026-04-26 18:54 | -10.70871 | -43.80904 | 36904 ft | 443 kts | 37° |
| 2026-04-26 18:55 | -10.65962 | -43.77125 | 36905 ft | 443 kts | 37° |
| 2026-04-26 18:55 | -10.61056 | -43.73346 | 36904 ft | 442 kts | 37° |
| 2026-04-26 18:56 | -10.56146 | -43.69566 | 36910 ft | 442 kts | 37° |
| 2026-04-26 18:56 | -10.51236 | -43.65789 | 36904 ft | 442 kts | 37° |
| 2026-04-26 18:57 | -10.47163 | -43.62656 | 36904 ft | 442 kts | 37° |
| 2026-04-26 18:57 | -10.41424 | -43.58245 | 36907 ft | 442 kts | 38° |
| 2026-04-26 18:58 | -10.36519 | -43.54475 | 36907 ft | 442 kts | 38° |
| 2026-04-26 18:58 | -10.31642 | -43.50728 | 36902 ft | 442 kts | 38° |
| 2026-04-26 18:59 | -10.26744 | -43.46967 | 36910 ft | 442 kts | 38° |
| 2026-04-26 18:59 | -10.21841 | -43.43203 | 36909 ft | 442 kts | 38° |
| 2026-04-26 19:00 | -10.16939 | -43.39442 | 36910 ft | 442 kts | 38° |
| 2026-04-26 19:00 | -10.12021 | -43.35676 | 36910 ft | 442 kts | 38° |
| 2026-04-26 19:01 | -10.07118 | -43.31923 | 36909 ft | 442 kts | 38° |
| 2026-04-26 19:01 | -10.02203 | -43.28161 | 36907 ft | 442 kts | 38° |
| 2026-04-26 19:02 | -9.97291 | -43.24401 | 36916 ft | 442 kts | 38° |
| 2026-04-26 19:02 | -9.93209 | -43.21278 | 36906 ft | 442 kts | 38° |
| 2026-04-26 19:03 | -9.87501 | -43.16912 | 36912 ft | 442 kts | 38° |
| 2026-04-26 19:03 | -9.82587 | -43.13156 | 36908 ft | 442 kts | 38° |
| 2026-04-26 19:04 | -9.77669 | -43.09397 | 36908 ft | 442 kts | 38° |
| 2026-04-26 19:04 | -9.72746 | -43.05636 | 36910 ft | 443 kts | 38° |
| 2026-04-26 19:05 | -9.65359 | -42.99996 | 36914 ft | 443 kts | 38° |
| 2026-04-26 19:06 | -9.60437 | -42.96240 | 36918 ft | 443 kts | 38° |
| 2026-04-26 19:06 | -9.55509 | -42.92480 | 36912 ft | 444 kts | 38° |
| 2026-04-26 19:07 | -9.50607 | -42.88742 | 36912 ft | 444 kts | 38° |
| 2026-04-26 19:07 | -9.45655 | -42.84966 | 36912 ft | 445 kts | 38° |
| 2026-04-26 19:08 | -9.40707 | -42.81195 | 36911 ft | 445 kts | 38° |
| 2026-04-26 19:08 | -9.35752 | -42.77421 | 36914 ft | 446 kts | 38° |
| 2026-04-26 19:09 | -9.30784 | -42.73638 | 36913 ft | 446 kts | 38° |
| 2026-04-26 19:09 | -9.25850 | -42.69882 | 36914 ft | 447 kts | 38° |
| 2026-04-26 19:10 | -9.20874 | -42.66095 | 36915 ft | 447 kts | 38° |
| 2026-04-26 19:10 | -9.15902 | -42.62313 | 36915 ft | 447 kts | 38° |
| 2026-04-26 19:11 | -9.10930 | -42.58532 | 36915 ft | 447 kts | 38° |
| 2026-04-26 19:11 | -9.05956 | -42.54751 | 36916 ft | 447 kts | 38° |
| 2026-04-26 19:12 | -9.00991 | -42.50976 | 36913 ft | 446 kts | 38° |
| 2026-04-26 19:12 | -8.96056 | -42.47227 | 36913 ft | 446 kts | 38° |
| 2026-04-26 19:13 | -8.91099 | -42.43463 | 36916 ft | 445 kts | 38° |
| 2026-04-26 19:13 | -8.86146 | -42.39706 | 36911 ft | 445 kts | 38° |
| 2026-04-26 19:14 | -8.81200 | -42.35954 | 36912 ft | 444 kts | 38° |
| 2026-04-26 19:14 | -8.76253 | -42.32202 | 36909 ft | 444 kts | 38° |
| 2026-04-26 19:15 | -8.71306 | -42.28450 | 36906 ft | 443 kts | 38° |
| 2026-04-26 19:15 | -8.66369 | -42.24708 | 36910 ft | 443 kts | 38° |
| 2026-04-26 19:16 | -8.61469 | -42.20994 | 36905 ft | 442 kts | 38° |
| 2026-04-26 19:16 | -8.56547 | -42.17265 | 36909 ft | 442 kts | 38° |
| 2026-04-26 19:17 | -8.51623 | -42.13536 | 36905 ft | 442 kts | 38° |
| 2026-04-26 19:17 | -8.46702 | -42.09811 | 36904 ft | 441 kts | 38° |
| 2026-04-26 19:18 | -8.41785 | -42.06089 | 36903 ft | 441 kts | 38° |
| 2026-04-26 19:18 | -8.36877 | -42.02376 | 36910 ft | 441 kts | 38° |
| 2026-04-26 19:19 | -8.31996 | -41.98684 | 36907 ft | 441 kts | 38° |
| 2026-04-26 19:19 | -8.27088 | -41.94973 | 36908 ft | 441 kts | 38° |
| 2026-04-26 19:20 | -8.22181 | -41.91264 | 36903 ft | 441 kts | 38° |
| 2026-04-26 19:20 | -8.17271 | -41.87554 | 36908 ft | 440 kts | 38° |
| 2026-04-26 19:21 | -8.12367 | -41.83850 | 36903 ft | 440 kts | 38° |
| 2026-04-26 19:21 | -8.07468 | -41.80150 | 36908 ft | 440 kts | 38° |
| 2026-04-26 19:22 | -8.02566 | -41.76450 | 36910 ft | 439 kts | 38° |
| 2026-04-26 19:22 | -7.97672 | -41.72756 | 36908 ft | 439 kts | 38° |
| 2026-04-26 19:23 | -7.92779 | -41.69065 | 36911 ft | 439 kts | 38° |
| 2026-04-26 19:23 | -7.87881 | -41.65370 | 36908 ft | 439 kts | 38° |
| 2026-04-26 19:24 | -7.83022 | -41.61707 | 36906 ft | 439 kts | 38° |
| 2026-04-26 19:24 | -7.75685 | -41.56177 | 36912 ft | 439 kts | 38° |
| 2026-04-26 19:25 | -7.72411 | -41.53710 | 36911 ft | 439 kts | 38° |
| 2026-04-26 19:25 | -7.65889 | -41.48797 | 36915 ft | 440 kts | 38° |
| 2026-04-26 19:26 | -7.61809 | -41.45725 | 36912 ft | 440 kts | 38° |
| 2026-04-26 19:26 | -7.56908 | -41.42035 | 36914 ft | 440 kts | 38° |
| 2026-04-26 19:27 | -7.51989 | -41.38333 | 36916 ft | 441 kts | 38° |
| 2026-04-26 19:27 | -7.47074 | -41.34635 | 36916 ft | 441 kts | 38° |
| 2026-04-26 19:28 | -7.42147 | -41.30929 | 36911 ft | 442 kts | 39° |
| 2026-04-26 19:28 | -7.37225 | -41.27228 | 36917 ft | 441 kts | 39° |
| 2026-04-26 19:29 | -7.32302 | -41.23528 | 36916 ft | 441 kts | 39° |
| 2026-04-26 19:29 | -7.27375 | -41.19825 | 36915 ft | 441 kts | 39° |
| 2026-04-26 19:30 | -7.22484 | -41.16150 | 36916 ft | 441 kts | 39° |
| 2026-04-26 19:30 | -7.18367 | -41.13057 | 36913 ft | 440 kts | 39° |
| 2026-04-26 19:31 | -7.12668 | -41.08778 | 36919 ft | 439 kts | 39° |
| 2026-04-26 19:31 | -7.07772 | -41.05103 | 36919 ft | 439 kts | 39° |
| 2026-04-26 19:32 | -7.02884 | -41.01434 | 36919 ft | 438 kts | 39° |
| 2026-04-26 19:32 | -6.98000 | -40.97770 | 36926 ft | 437 kts | 39° |
| 2026-04-26 19:33 | -6.93130 | -40.94116 | 36925 ft | 436 kts | 39° |
| 2026-04-26 19:33 | -6.88263 | -40.90466 | 36928 ft | 435 kts | 39° |
| 2026-04-26 19:34 | -6.83409 | -40.86827 | 36924 ft | 435 kts | 39° |
| 2026-04-26 19:34 | -6.78595 | -40.83218 | 36930 ft | 434 kts | 39° |
| 2026-04-26 19:35 | -6.73748 | -40.79585 | 36929 ft | 434 kts | 39° |
| 2026-04-26 19:35 | -6.68913 | -40.75962 | 36930 ft | 433 kts | 39° |
| 2026-04-26 19:36 | -6.64864 | -40.72931 | 36930 ft | 433 kts | 39° |
| 2026-04-26 19:36 | -6.59253 | -40.68731 | 36939 ft | 433 kts | 39° |
| 2026-04-26 19:37 | -6.54426 | -40.65116 | 36935 ft | 433 kts | 39° |
| 2026-04-26 19:37 | -6.49593 | -40.61498 | 36937 ft | 433 kts | 39° |
| 2026-04-26 19:38 | -6.44764 | -40.57883 | 36934 ft | 433 kts | 39° |
| 2026-04-26 19:38 | -6.39936 | -40.54270 | 36941 ft | 433 kts | 39° |
| 2026-04-26 19:39 | -6.35105 | -40.50656 | 36937 ft | 433 kts | 39° |
| 2026-04-26 19:39 | -6.30269 | -40.47039 | 36930 ft | 433 kts | 39° |
| 2026-04-26 19:40 | -6.25441 | -40.43430 | 36926 ft | 432 kts | 39° |
| 2026-04-26 19:40 | -6.20612 | -40.39819 | 36923 ft | 432 kts | 39° |
| 2026-04-26 19:41 | -6.15819 | -40.36237 | 36937 ft | 431 kts | 39° |
| 2026-04-26 19:41 | -6.11787 | -40.33223 | 36936 ft | 431 kts | 39° |
| 2026-04-26 19:42 | -6.06191 | -40.29042 | 36930 ft | 431 kts | 39° |
| 2026-04-26 19:42 | -6.01374 | -40.25443 | 36937 ft | 431 kts | 39° |
| 2026-04-26 19:43 | -5.96563 | -40.21851 | 36938 ft | 431 kts | 39° |
| 2026-04-26 19:43 | -5.91752 | -40.18260 | 36938 ft | 431 kts | 39° |
| 2026-04-26 19:44 | -5.86933 | -40.14665 | 36940 ft | 431 kts | 39° |
| 2026-04-26 19:44 | -5.82143 | -40.11091 | 36941 ft | 431 kts | 39° |
| 2026-04-26 19:45 | -5.77324 | -40.07495 | 36938 ft | 431 kts | 39° |
| 2026-04-26 19:45 | -5.72502 | -40.03897 | 36950 ft | 432 kts | 39° |
| 2026-04-26 19:46 | -5.67675 | -40.00297 | 36938 ft | 432 kts | 39° |
| 2026-04-26 19:46 | -5.62832 | -39.96685 | 36583 ft | 438 kts | 39° |
| 2026-04-26 19:47 | -5.60390 | -39.94864 | 36255 ft | 434 kts | 39° |
| 2026-04-26 19:47 | -5.58792 | -39.93673 | 35952 ft | 432 kts | 39° |
| 2026-04-26 19:47 | -5.55582 | -39.91282 | 35382 ft | 427 kts | 39° |
| 2026-04-26 19:47 | -5.53208 | -39.89514 | 34973 ft | 424 kts | 39° |
| 2026-04-26 19:48 | -5.50846 | -39.87753 | 34556 ft | 421 kts | 39° |
| 2026-04-26 19:48 | -5.48502 | -39.86007 | 34125 ft | 419 kts | 39° |
| 2026-04-26 19:48 | -5.46197 | -39.84289 | 33681 ft | 417 kts | 39° |
| 2026-04-26 19:48 | -5.43880 | -39.82563 | 33238 ft | 414 kts | 39° |
| 2026-04-26 19:49 | -5.41574 | -39.80845 | 32825 ft | 411 kts | 39° |
| 2026-04-26 19:49 | -5.39286 | -39.79141 | 32404 ft | 408 kts | 39° |
| 2026-04-26 19:49 | -5.37016 | -39.77450 | 31997 ft | 406 kts | 38° |
| 2026-04-26 19:49 | -5.34755 | -39.75766 | 31599 ft | 403 kts | 38° |
| 2026-04-26 19:50 | -5.32508 | -39.74092 | 31207 ft | 401 kts | 38° |
| 2026-04-26 19:50 | -5.30278 | -39.72431 | 30826 ft | 399 kts | 38° |
| 2026-04-26 19:50 | -5.28054 | -39.70776 | 30429 ft | 397 kts | 38° |
| 2026-04-26 19:50 | -5.25841 | -39.69128 | 30026 ft | 395 kts | 38° |
| 2026-04-26 19:51 | -5.23640 | -39.67489 | 29579 ft | 393 kts | 38° |
| 2026-04-26 19:51 | -5.21445 | -39.65855 | 29150 ft | 390 kts | 38° |
| 2026-04-26 19:51 | -5.19270 | -39.64236 | 28736 ft | 387 kts | 38° |
| 2026-04-26 19:51 | -5.17110 | -39.62629 | 28320 ft | 385 kts | 38° |
| 2026-04-26 19:52 | -5.14971 | -39.61037 | 27925 ft | 382 kts | 38° |
| 2026-04-26 19:52 | -5.12841 | -39.59452 | 27524 ft | 380 kts | 38° |
| 2026-04-26 19:52 | -5.10752 | -39.57898 | 27146 ft | 377 kts | 38° |
| 2026-04-26 19:52 | -5.08649 | -39.56332 | 26758 ft | 375 kts | 38° |
| 2026-04-26 19:53 | -5.06556 | -39.54776 | 26372 ft | 373 kts | 38° |
| 2026-04-26 19:53 | -5.04481 | -39.53232 | 25990 ft | 371 kts | 37° |
| 2026-04-26 19:53 | -5.02408 | -39.51690 | 25611 ft | 370 kts | 37° |
| 2026-04-26 19:53 | -5.00342 | -39.50153 | 25225 ft | 369 kts | 37° |
| 2026-04-26 19:54 | -4.98285 | -39.48623 | 24835 ft | 368 kts | 37° |
| 2026-04-26 19:54 | -4.96229 | -39.47094 | 24453 ft | 367 kts | 37° |
| 2026-04-26 19:54 | -4.94177 | -39.45568 | 24072 ft | 366 kts | 37° |
| 2026-04-26 19:54 | -4.92128 | -39.44045 | 23683 ft | 366 kts | 37° |
| 2026-04-26 19:55 | -4.90086 | -39.42527 | 23257 ft | 366 kts | 37° |
| 2026-04-26 19:55 | -4.88046 | -39.41010 | 22850 ft | 364 kts | 37° |
| 2026-04-26 19:55 | -4.86021 | -39.39505 | 22458 ft | 362 kts | 37° |
| 2026-04-26 19:55 | -4.84005 | -39.38006 | 22068 ft | 359 kts | 37° |
| 2026-04-26 19:56 | -4.82000 | -39.36517 | 21696 ft | 357 kts | 37° |
| 2026-04-26 19:56 | -4.80008 | -39.35036 | 21327 ft | 355 kts | 37° |
| 2026-04-26 19:56 | -4.78031 | -39.33567 | 20959 ft | 353 kts | 37° |
| 2026-04-26 19:56 | -4.76061 | -39.32103 | 20591 ft | 351 kts | 37° |
| 2026-04-26 19:57 | -4.74126 | -39.30665 | 20232 ft | 350 kts | 37° |
| 2026-04-26 19:57 | -4.72152 | -39.29199 | 19872 ft | 348 kts | 37° |
| 2026-04-26 19:57 | -4.70209 | -39.27755 | 19503 ft | 347 kts | 37° |
| 2026-04-26 19:57 | -4.68275 | -39.26318 | 19145 ft | 346 kts | 38° |
| 2026-04-26 19:58 | -4.66367 | -39.24900 | 18784 ft | 345 kts | 38° |
| 2026-04-26 19:58 | -4.64438 | -39.23467 | 18406 ft | 345 kts | 38° |
| 2026-04-26 19:58 | -4.62512 | -39.22036 | 18012 ft | 344 kts | 38° |
| 2026-04-26 19:58 | -4.60595 | -39.20612 | 17627 ft | 342 kts | 38° |
| 2026-04-26 19:59 | -4.58687 | -39.19195 | 17253 ft | 340 kts | 38° |
| 2026-04-26 19:59 | -4.56794 | -39.17790 | 16891 ft | 338 kts | 38° |
| 2026-04-26 19:59 | -4.54906 | -39.16389 | 16533 ft | 336 kts | 37° |
| 2026-04-26 19:59 | -4.53045 | -39.15013 | 16170 ft | 328 kts | 37° |
| 2026-04-26 20:00 | -4.51231 | -39.13673 | 15830 ft | 319 kts | 37° |
| 2026-04-26 20:00 | -4.49466 | -39.12369 | 15497 ft | 311 kts | 37° |
| 2026-04-26 20:00 | -4.47738 | -39.11092 | 15174 ft | 304 kts | 37° |
| 2026-04-26 20:00 | -4.46080 | -39.09866 | 14861 ft | 297 kts | 37° |
| 2026-04-26 20:01 | -4.44419 | -39.08638 | 14545 ft | 290 kts | 37° |
| 2026-04-26 20:01 | -4.42830 | -39.07464 | 14240 ft | 284 kts | 37° |
| 2026-04-26 20:01 | -4.41244 | -39.06292 | 13960 ft | 283 kts | 37° |
| 2026-04-26 20:01 | -4.39651 | -39.05133 | 13645 ft | 284 kts | 33° |
| 2026-04-26 20:02 | -4.37939 | -39.04090 | 13344 ft | 295 kts | 30° |
| 2026-04-26 20:02 | -4.36070 | -39.03048 | 13050 ft | 317 kts | 29° |
| 2026-04-26 20:02 | -4.34147 | -39.01995 | 12737 ft | 313 kts | 29° |
| 2026-04-26 20:02 | -4.32861 | -39.01291 | 12483 ft | 309 kts | 29° |
| 2026-04-26 20:03 | -4.30381 | -38.99925 | 11777 ft | 307 kts | 29° |
| 2026-04-26 20:03 | -4.28516 | -38.98891 | 11247 ft | 305 kts | 29° |
| 2026-04-26 20:03 | -4.26678 | -38.97868 | 10871 ft | 299 kts | 30° |
| 2026-04-26 20:03 | -4.24883 | -38.96865 | 10537 ft | 292 kts | 30° |
| 2026-04-26 20:04 | -4.23135 | -38.95888 | 10242 ft | 284 kts | 30° |
| 2026-04-26 20:04 | -4.21447 | -38.94943 | 10114 ft | 272 kts | 30° |
| 2026-04-26 20:04 | -4.19813 | -38.94028 | 9981 ft | 266 kts | 30° |
| 2026-04-26 20:04 | -4.18192 | -38.93119 | 9760 ft | 271 kts | 30° |
| 2026-04-26 20:05 | -4.16513 | -38.92177 | 9478 ft | 281 kts | 30° |
| 2026-04-26 20:05 | -4.14806 | -38.91220 | 9167 ft | 279 kts | 30° |
| 2026-04-26 20:05 | -4.13135 | -38.90284 | 8862 ft | 272 kts | 30° |
| 2026-04-26 20:05 | -4.11507 | -38.89371 | 8568 ft | 265 kts | 30° |
| 2026-04-26 20:06 | -4.09915 | -38.88479 | 8303 ft | 258 kts | 30° |
| 2026-04-26 20:06 | -4.08351 | -38.87602 | 8039 ft | 259 kts | 31° |
| 2026-04-26 20:06 | -4.06767 | -38.86712 | 7782 ft | 263 kts | 32° |
| 2026-04-26 20:06 | -4.05357 | -38.85544 | 7475 ft | 272 kts | 53° |
| 2026-04-26 20:07 | -4.04459 | -38.83905 | 7192 ft | 267 kts | 75° |
| 2026-04-26 20:07 | -4.04252 | -38.82090 | 6943 ft | 255 kts | 98° |
| 2026-04-26 20:07 | -4.04741 | -38.80474 | 6822 ft | 239 kts | 120° |
| 2026-04-26 20:07 | -4.05613 | -38.79098 | 6723 ft | 233 kts | 127° |
| 2026-04-26 20:08 | -4.06851 | -38.77985 | 6494 ft | 250 kts | 151° |
| 2026-04-26 20:08 | -4.08533 | -38.77424 | 6280 ft | 259 kts | 173° |
| 2026-04-26 20:08 | -4.10325 | -38.77560 | 6090 ft | 263 kts | 195° |
| 2026-04-26 20:08 | -4.12011 | -38.78305 | 6064 ft | 265 kts | 206° |
| 2026-04-26 20:09 | -4.13635 | -38.79187 | 6026 ft | 265 kts | 207° |
| 2026-04-26 20:09 | -4.15242 | -38.80083 | 6031 ft | 264 kts | 207° |
| 2026-04-26 20:09 | -4.16844 | -38.80978 | 6020 ft | 263 kts | 207° |
| 2026-04-26 20:09 | -4.18449 | -38.81878 | 6017 ft | 264 kts | 207° |
| 2026-04-26 20:10 | -4.20051 | -38.82778 | 6023 ft | 264 kts | 207° |
| 2026-04-26 20:10 | -4.21656 | -38.83678 | 6020 ft | 265 kts | 207° |
| 2026-04-26 20:10 | -4.23273 | -38.84581 | 6023 ft | 266 kts | 207° |
| 2026-04-26 20:10 | -4.24868 | -38.85474 | 6025 ft | 266 kts | 208° |
| 2026-04-26 20:11 | -4.26203 | -38.86738 | 6017 ft | 270 kts | 240° |
| 2026-04-26 20:11 | -4.26603 | -38.88567 | 6015 ft | 275 kts | 275° |
| 2026-04-26 20:11 | -4.25908 | -38.90327 | 6021 ft | 276 kts | 309° |
| 2026-04-26 20:12 | -4.22681 | -38.92286 | 6012 ft | 276 kts | 352° |
| 2026-04-26 20:12 | -4.20787 | -38.92224 | 6014 ft | 276 kts | 17° |
| 2026-04-26 20:12 | -4.18983 | -38.91502 | 5798 ft | 279 kts | 27° |
| 2026-04-26 20:12 | -4.17265 | -38.90642 | 5539 ft | 271 kts | 28° |
| 2026-04-26 20:13 | -4.15622 | -38.89794 | 5259 ft | 261 kts | 29° |
| 2026-04-26 20:13 | -4.14558 | -38.89244 | 5107 ft | 257 kts | 29° |
| 2026-04-26 20:13 | -4.12981 | -38.88433 | 4876 ft | 254 kts | 29° |
| 2026-04-26 20:13 | -4.10876 | -38.87357 | 4527 ft | 255 kts | 28° |
| 2026-04-26 20:14 | -4.09813 | -38.86816 | 4393 ft | 261 kts | 28° |
| 2026-04-26 20:14 | -4.08181 | -38.85989 | 4279 ft | 266 kts | 28° |
| 2026-04-26 20:14 | -4.06527 | -38.85155 | 4235 ft | 266 kts | 28° |
| 2026-04-26 20:14 | -4.04875 | -38.84322 | 4222 ft | 266 kts | 28° |
| 2026-04-26 20:15 | -4.03222 | -38.83492 | 4219 ft | 267 kts | 28° |
| 2026-04-26 20:15 | -4.01557 | -38.82656 | 4227 ft | 268 kts | 28° |
| 2026-04-26 20:15 | -3.99897 | -38.81823 | 4218 ft | 265 kts | 28° |
| 2026-04-26 20:15 | -3.98252 | -38.80998 | 4213 ft | 264 kts | 28° |
| 2026-04-26 20:16 | -3.96611 | -38.80175 | 4207 ft | 262 kts | 28° |
| 2026-04-26 20:16 | -3.94981 | -38.79358 | 4213 ft | 262 kts | 28° |
| 2026-04-26 20:16 | -3.93368 | -38.78550 | 4209 ft | 263 kts | 28° |
| 2026-04-26 20:16 | -3.91732 | -38.77729 | 4214 ft | 263 kts | 28° |
| 2026-04-26 20:17 | -3.90091 | -38.76906 | 4207 ft | 264 kts | 28° |
| 2026-04-26 20:17 | -3.88447 | -38.76082 | 4212 ft | 265 kts | 28° |
| 2026-04-26 20:17 | -3.86796 | -38.75254 | 4209 ft | 265 kts | 28° |
| 2026-04-26 20:17 | -3.85142 | -38.74425 | 4206 ft | 266 kts | 28° |
| 2026-04-26 20:18 | -3.83485 | -38.73595 | 4203 ft | 266 kts | 28° |
| 2026-04-26 20:18 | -3.81807 | -38.72814 | 4152 ft | 268 kts | 21° |
| 2026-04-26 20:18 | -3.80012 | -38.72292 | 3886 ft | 267 kts | 16° |
| 2026-04-26 20:18 | -3.78241 | -38.71847 | 3638 ft | 258 kts | 15° |
| 2026-04-26 20:19 | -3.76528 | -38.71406 | 3404 ft | 250 kts | 16° |
| 2026-04-26 20:19 | -3.74902 | -38.70953 | 3177 ft | 241 kts | 23° |
| 2026-04-26 20:19 | -3.73647 | -38.69956 | 2920 ft | 228 kts | 63° |
| 2026-04-26 20:19 | -3.73393 | -38.68499 | 2724 ft | 207 kts | 103° |
| 2026-04-26 20:20 | -3.73767 | -38.67177 | 2528 ft | 189 kts | 108° |
| 2026-04-26 20:20 | -3.74117 | -38.65961 | 2286 ft | 175 kts | 108° |
| 2026-04-26 20:20 | -3.74480 | -38.64851 | 2110 ft | 160 kts | 110° |
| 2026-04-26 20:20 | -3.74804 | -38.63833 | 1914 ft | 150 kts | 108° |
| 2026-04-26 20:21 | -3.75083 | -38.62827 | 1715 ft | 149 kts | 107° |
| 2026-04-26 20:21 | -3.75354 | -38.61815 | 1520 ft | 152 kts | 106° |
| 2026-04-26 20:21 | -3.75625 | -38.60798 | 1329 ft | 150 kts | 105° |
| 2026-04-26 20:21 | -3.75892 | -38.59795 | 1151 ft | 149 kts | 105° |
| 2026-04-26 20:22 | -3.76158 | -38.58792 | 964 ft | 147 kts | 104° |
| 2026-04-26 20:22 | -3.76424 | -38.57792 | 774 ft | 148 kts | 105° |
| 2026-04-26 20:22 | -3.76687 | -38.56803 | 582 ft | 145 kts | 105° |
| 2026-04-26 20:22 | -3.76943 | -38.55829 | 380 ft | 148 kts | 104° |
| 2026-04-26 20:23 | -3.77209 | -38.54845 | 229 ft | 146 kts | 104° |
| 2026-04-26 20:23 | -3.77466 | -38.53870 | 93 ft | 135 kts | 105° |
| 2026-04-26 20:23 | -3.77655 | -38.53175 | 90 ft | 72 kts | 105° |
| 2026-04-26 20:23 | -3.77746 | -38.52833 | 93 ft | 43 kts | 105° |
| 2026-04-26 20:24 | -3.77810 | -38.52616 | 93 ft | 16 kts | 136° |
| 2026-04-26 20:24 | -3.77862 | -38.52640 | 91 ft | 7 kts | 241° |
| 2026-04-26 20:24 | -3.77886 | -38.52682 | 92 ft | 7 kts | 241° |
| 2026-04-26 20:24 | -3.77905 | -38.52725 | 91 ft | 7 kts | 248° |
| 2026-04-26 20:25 | -3.77913 | -38.52772 | 93 ft | 8 kts | 274° |
| 2026-04-26 20:25 | -3.77905 | -38.52812 | 91 ft | 10 kts | 283° |
| 2026-04-26 20:25 | -3.77878 | -38.52910 | 92 ft | 11 kts | 285° |
| 2026-04-26 20:25 | -3.77857 | -38.52984 | 91 ft | 11 kts | 285° |
| 2026-04-26 20:26 | -3.77837 | -38.53057 | 91 ft | 11 kts | 285° |
| 2026-04-26 20:26 | -3.77819 | -38.53126 | 90 ft | 10 kts | 284° |
| 2026-04-26 20:26 | -3.77802 | -38.53194 | 90 ft | 10 kts | 285° |
| 2026-04-26 20:26 | -3.77785 | -38.53259 | 90 ft | 9 kts | 284° |
| 2026-04-26 20:27 | -3.77769 | -38.53320 | 93 ft | 9 kts | 285° |
| 2026-04-26 20:27 | -3.77752 | -38.53383 | 92 ft | 10 kts | 285° |
| 2026-04-26 20:27 | -3.77730 | -38.53462 | 92 ft | 13 kts | 285° |
| 2026-04-26 20:27 | -3.77703 | -38.53564 | 90 ft | 17 kts | 284° |
| 2026-04-26 20:28 | -3.77671 | -38.53681 | 90 ft | 18 kts | 285° |
| 2026-04-26 20:28 | -3.77680 | -38.53788 | 92 ft | 15 kts | 241° |
| 2026-04-26 20:28 | -3.77723 | -38.53863 | 92 ft | 12 kts | 240° |
| 2026-04-26 20:28 | -3.77786 | -38.53861 | 92 ft | 12 kts | 125° |
| 2026-04-26 20:29 | -3.77847 | -38.53836 | 91 ft | 11 kts | 216° |
| 2026-04-26 20:29 | -3.77872 | -38.53855 | 90 ft | 1 kts | 216° |
| 2026-04-26 20:29 | -3.77876 | -38.53858 | 90 ft | 0 kts | 216° |